Time;durP1;ratioP1;P1;durP2;ratioP2;P2;SDS_P1;SDS_P2;PMS_P1;PMS_P2;Temp;Humidity;BMP_temperature;BMP_pressure;BME280_temperature;BME280_humidity;BME280_pressure;Samples;Min_cycle;Max_cycle;Signal;HPM_P1;HPM_P2
2023/01/14 00:02:23;;;;;;;0.40;0.40;;;6.40;99.90;;;;;;5045052;28;20025;-81
2023/01/14 00:04:49;;;;;;;1.52;0.93;;;6.40;99.90;;;;;;5043994;28;20036;-82
2023/01/14 00:07:16;;;;;;;6.43;2.22;;;6.40;99.90;;;;;;5042918;28;20032;-82
2023/01/14 00:09:42;;;;;;;;;;;6.40;99.90;;;;;;5045236;28;20081;-81
2023/01/14 00:12:08;;;;;;;5.05;0.60;;;6.30;99.90;;;;;;5045527;28;19954;-82
2023/01/14 00:14:36;;;;;;;1.67;1.27;;;6.20;99.90;;;;;;5044897;28;20112;-82
2023/01/14 00:17:02;;;;;;;0.10;0.10;;;6.30;99.90;;;;;;5045003;28;20120;-81
2023/01/14 00:19:28;;;;;;;0.10;0.10;;;6.20;99.90;;;;;;5044753;28;20041;-81
2023/01/14 00:21:55;;;;;;;0.52;0.52;;;6.30;99.90;;;;;;5037742;28;20032;-81
2023/01/14 00:24:21;;;;;;;0.10;0.10;;;6.20;99.90;;;;;;5048126;28;20033;-80
2023/01/14 00:26:52;;;;;;;0.20;0.20;;;6.20;99.90;;;;;;5044059;28;20035;-80
2023/01/14 00:29:28;;;;;;;0.20;0.20;;;6.30;99.90;;;;;;5039459;28;20035;-80
2023/01/14 00:31:59;;;;;;;0.20;0.20;;;6.30;99.90;;;;;;5040934;28;20124;-80
2023/01/14 00:34:26;;;;;;;0.20;0.20;;;6.20;99.90;;;;;;5048576;28;20033;-80
2023/01/14 00:36:52;;;;;;;1.45;1.10;;;6.30;99.90;;;;;;5048774;28;20036;-82
2023/01/14 00:39:18;;;;;;;0.10;0.10;;;6.30;99.90;;;;;;5056766;28;20036;-81
2023/01/14 00:41:44;;;;;;;0.43;0.43;;;6.20;99.90;;;;;;5043125;28;20071;-81
2023/01/14 00:44:10;;;;;;;0.10;0.10;;;6.20;99.90;;;;;;5053609;28;20028;-82
2023/01/14 00:46:38;;;;;;;0.95;0.95;;;6.40;99.90;;;;;;5046696;28;20021;-82
2023/01/14 00:49:06;;;;;;;1.88;1.08;;;6.40;99.90;;;;;;5047494;28;20043;-83
2023/01/14 00:51:32;;;;;;;0.75;0.75;;;6.30;99.90;;;;;;5042163;28;20065;-82
2023/01/14 00:53:59;;;;;;;0.10;0.10;;;6.40;99.90;;;;;;5043782;28;20025;-82
2023/01/14 00:56:25;;;;;;;0.10;0.10;;;6.30;99.90;;;;;;5042697;28;20283;-82
2023/01/14 00:58:51;;;;;;;1.00;1.00;;;6.30;99.90;;;;;;5044143;28;20049;-80
2023/01/14 01:01:17;;;;;;;0.20;0.20;;;6.20;99.90;;;;;;5044196;28;20040;-81
2023/01/14 01:03:46;;;;;;;0.63;0.63;;;6.20;99.90;;;;;;5044612;28;20732;-81
2023/01/14 01:06:13;;;;;;;0.80;0.68;;;6.20;99.90;;;;;;5041451;28;20844;-81
2023/01/14 01:08:38;;;;;;;0.82;0.45;;;6.20;99.90;;;;;;5042859;28;20059;-83
2023/01/14 01:11:05;;;;;;;0.45;0.30;;;6.10;99.90;;;;;;5044068;28;20041;-83
2023/01/14 01:13:31;;;;;;;0.30;0.30;;;6.10;99.90;;;;;;5044244;28;20586;-83
2023/01/14 01:16:03;;;;;;;0.10;0.10;;;6.10;99.90;;;;;;5048069;28;20029;-81
2023/01/14 01:18:29;;;;;;;0.20;0.20;;;6.10;99.90;;;;;;5044609;28;20017;-81
2023/01/14 01:21:04;;;;;;;0.20;0.20;;;6.10;99.90;;;;;;5044601;28;20064;-81
2023/01/14 01:23:30;;;;;;;0.52;0.50;;;6.20;99.90;;;;;;5043893;28;20051;-81
2023/01/14 01:26:01;;;;;;;0.10;0.10;;;6.20;99.90;;;;;;5043671;28;20682;-81
2023/01/14 01:28:27;;;;;;;1.20;0.50;;;6.10;99.90;;;;;;5043375;28;20040;-81
2023/01/14 01:30:52;;;;;;;1.08;1.08;;;6.10;99.90;;;;;;5044013;28;20021;-82
2023/01/14 01:33:18;;;;;;;0.25;0.25;;;6.10;99.90;;;;;;5044003;28;20108;-82
2023/01/14 01:35:44;;;;;;;1.15;0.93;;;6.20;99.90;;;;;;5043643;28;20047;-82
2023/01/14 01:38:09;;;;;;;0.80;0.80;;;6.10;99.90;;;;;;5044278;28;20025;-82
2023/01/14 01:40:35;;;;;;;0.45;0.45;;;6.10;99.90;;;;;;5043847;28;20115;-82
2023/01/14 01:43:01;;;;;;;0.63;0.63;;;6.10;99.90;;;;;;5043333;28;20465;-81
2023/01/14 01:45:38;;;;;;;0.10;0.10;;;6.20;99.90;;;;;;5044133;28;20071;-82
2023/01/14 01:48:22;;;;;;;0.10;0.10;;;6.20;99.90;;;;;;5042346;28;20021;-82
2023/01/14 01:50:57;;;;;;;0.73;0.70;;;6.20;99.90;;;;;;5038997;28;20856;-81
2023/01/14 01:53:24;;;;;;;1.48;0.85;;;6.10;99.90;;;;;;5038874;28;20058;-82
2023/01/14 01:55:53;;;;;;;0.35;0.35;;;6.20;99.90;;;;;;5043142;28;20021;-82
2023/01/14 01:58:21;;;;;;;1.55;0.85;;;6.10;99.90;;;;;;5042630;28;20027;-81
2023/01/14 02:00:47;;;;;;;3.42;0.65;;;6.00;99.90;;;;;;5043648;28;20033;-81
2023/01/14 02:03:35;;;;;;;0.35;0.35;;;6.00;99.90;;;;;;5042472;28;20031;-81
2023/01/14 02:06:00;;;;;;;0.52;0.52;;;6.00;99.90;;;;;;5041001;28;20389;-81
2023/01/14 02:08:26;;;;;;;0.25;0.25;;;6.00;99.90;;;;;;5042439;28;20041;-81
2023/01/14 02:11:14;;;;;;;0.40;0.40;;;5.90;99.90;;;;;;5042863;28;20036;-80
2023/01/14 02:13:42;;;;;;;2.35;0.45;;;5.90;99.90;;;;;;5042517;28;20035;-81
2023/01/14 02:16:11;;;;;;;0.40;0.40;;;5.90;99.90;;;;;;5040699;28;20044;-80
2023/01/14 02:19:01;;;;;;;0.13;0.13;;;5.90;99.90;;;;;;5040508;28;20029;-80
2023/01/14 02:21:34;;;;;;;0.10;0.10;;;5.90;99.90;;;;;;5042318;28;20032;-82
2023/01/14 02:24:33;;;;;;;0.35;0.35;;;5.80;99.90;;;;;;5043703;28;20025;-81
2023/01/14 02:27:14;;;;;;;0.45;0.40;;;5.80;99.90;;;;;;5039513;28;20063;-81
2023/01/14 02:29:58;;;;;;;0.20;0.20;;;5.90;99.90;;;;;;5042054;28;20036;-82
2023/01/14 02:32:36;;;;;;;1.08;0.95;;;5.80;99.90;;;;;;5040738;28;20078;-81
2023/01/14 02:35:08;;;;;;;0.30;0.30;;;5.80;99.90;;;;;;5043368;28;20084;-81
2023/01/14 02:37:44;;;;;;;0.68;0.68;;;5.80;99.90;;;;;;5040843;28;20048;-83
2023/01/14 02:40:20;;;;;;;0.15;0.15;;;5.70;99.90;;;;;;5038678;28;20060;-83
2023/01/14 02:45:47;;;;;;;0.20;0.20;;;5.80;99.90;;;;;;5037502;28;20048;-82
2023/01/14 02:48:14;;;;;;;3.72;0.90;;;5.70;99.90;;;;;;5041473;28;20033;-81
2023/01/14 02:50:40;;;;;;;0.10;0.10;;;5.70;99.90;;;;;;5041662;28;20029;-82
2023/01/14 02:53:17;;;;;;;0.10;0.10;;;5.70;99.90;;;;;;5041652;28;20021;-82
2023/01/14 02:55:42;;;;;;;0.40;0.40;;;5.60;99.90;;;;;;5033543;28;20048;-82
2023/01/14 02:58:36;;;;;;;0.30;0.30;;;5.50;99.90;;;;;;5041922;28;20048;-82
2023/01/14 03:01:28;;;;;;;0.10;0.10;;;5.50;99.90;;;;;;5041625;28;20037;-82
2023/01/14 03:04:12;;;;;;;0.20;0.20;;;5.50;99.90;;;;;;5023068;28;20043;-82
2023/01/14 03:07:10;;;;;;;0.28;0.28;;;5.50;99.90;;;;;;5039325;28;20159;-82
2023/01/14 03:10:03;;;;;;;0.10;0.10;;;5.50;99.90;;;;;;5041883;28;20041;-82
2023/01/14 03:12:49;;;;;;;2.55;1.58;;;5.40;99.90;;;;;;5036489;28;20018;-83
2023/01/14 03:15:36;;;;;;;0.60;0.60;;;5.50;99.90;;;;;;5019537;28;20045;-83
2023/01/14 03:18:25;;;;;;;0.20;0.20;;;5.40;99.90;;;;;;5042124;28;20060;-82
2023/01/14 03:21:05;;;;;;;0.75;0.73;;;5.50;99.90;;;;;;5041628;28;20065;-83
2023/01/14 03:23:34;;;;;;;0.10;0.10;;;5.60;99.90;;;;;;5041613;28;20029;-82
2023/01/14 03:26:04;;;;;;;0.17;0.17;;;5.80;99.90;;;;;;5046492;28;20226;-81
2023/01/14 03:28:34;;;;;;;0.77;0.77;;;5.90;99.90;;;;;;5041572;28;20040;-81
2023/01/14 03:31:05;;;;;;;0.65;0.57;;;6.00;99.90;;;;;;5041686;28;20086;-82
2023/01/14 03:33:36;;;;;;;1.27;1.20;;;6.00;99.90;;;;;;5039507;28;20027;-81
2023/01/14 03:36:04;;;;;;;0.10;0.10;;;6.00;99.90;;;;;;5045645;28;20025;-82
2023/01/14 03:38:37;;;;;;;2.55;1.58;;;6.00;99.90;;;;;;5047926;28;20038;-81
2023/01/14 03:41:06;;;;;;;6.75;2.28;;;5.90;99.90;;;;;;5045042;28;20510;-81
2023/01/14 03:43:46;;;;;;;0.10;0.10;;;5.90;99.90;;;;;;5046348;28;20563;-81
2023/01/14 03:46:12;;;;;;;0.32;0.32;;;5.80;99.90;;;;;;5046101;28;20040;-81
2023/01/14 03:48:38;;;;;;;0.10;0.10;;;5.80;99.90;;;;;;5042497;28;20030;-81
2023/01/14 03:51:25;;;;;;;0.73;0.73;;;5.80;99.90;;;;;;5045109;28;20036;-82
2023/01/14 03:54:18;;;;;;;0.20;0.20;;;5.90;99.90;;;;;;5041499;28;20033;-81
2023/01/14 03:56:47;;;;;;;0.10;0.10;;;6.00;99.90;;;;;;5048778;28;20506;-82
2023/01/14 03:59:22;;;;;;;0.20;0.20;;;6.10;99.90;;;;;;5040260;28;20029;-82
2023/01/14 04:01:52;;;;;;;0.63;0.57;;;6.00;99.90;;;;;;5045778;28;20025;-81
2023/01/14 04:04:21;;;;;;;0.40;0.40;;;6.00;99.90;;;;;;5053538;28;20046;-81
2023/01/14 04:06:47;;;;;;;0.20;0.20;;;5.90;99.90;;;;;;5046400;28;20029;-82
2023/01/14 04:09:13;;;;;;;0.10;0.10;;;5.90;99.90;;;;;;5055108;28;20511;-82
2023/01/14 04:11:39;;;;;;;0.10;0.10;;;5.80;99.90;;;;;;5043938;28;20275;-82
2023/01/14 04:16:49;;;;;;;18.52;0.82;;;5.70;99.90;;;;;;5040223;28;20114;-82
2023/01/14 04:19:15;;;;;;;0.20;0.20;;;5.70;99.90;;;;;;5046777;28;20040;-82
2023/01/14 04:21:41;;;;;;;0.10;0.10;;;5.80;99.90;;;;;;5047335;28;20033;-81
2023/01/14 04:24:07;;;;;;;0.10;0.10;;;5.90;99.90;;;;;;5043749;28;20666;-82
2023/01/14 04:26:32;;;;;;;0.50;0.50;;;5.80;99.90;;;;;;5040253;28;20082;-82
2023/01/14 04:28:58;;;;;;;0.40;0.40;;;5.90;99.90;;;;;;5045037;28;20048;-81
2023/01/14 04:31:24;;;;;;;1.00;0.55;;;5.90;99.90;;;;;;5044424;28;20062;-82
2023/01/14 04:33:50;;;;;;;0.10;0.10;;;5.90;99.90;;;;;;5044684;28;20033;-82
2023/01/14 04:36:16;;;;;;;0.10;0.10;;;5.70;99.90;;;;;;5043203;28;20028;-82
2023/01/14 04:38:42;;;;;;;1.02;0.93;;;5.70;99.90;;;;;;5042957;28;20083;-81
2023/01/14 04:42:26;;;;;;;0.93;0.83;;;5.60;99.90;;;;;;5043763;28;20523;-81
2023/01/14 04:43:57;;;;;;;0.10;0.10;;;5.60;99.90;;;;;;5036665;28;20266;-81
2023/01/14 04:46:23;;;;;;;0.20;0.20;;;5.60;99.90;;;;;;5042045;28;20144;-80
2023/01/14 04:48:49;;;;;;;0.20;0.20;;;5.60;99.90;;;;;;5046675;28;20021;-80
2023/01/14 04:51:14;;;;;;;0.10;0.10;;;5.70;99.90;;;;;;5041244;28;20025;-80
2023/01/14 04:53:40;;;;;;;0.15;0.15;;;5.70;99.90;;;;;;5043119;28;20507;-81
2023/01/14 04:56:06;;;;;;;0.10;0.10;;;5.80;99.90;;;;;;5043873;28;20033;-81
2023/01/14 04:58:32;;;;;;;0.10;0.10;;;5.70;99.90;;;;;;5044038;28;20059;-80
2023/01/14 05:00:57;;;;;;;0.55;0.55;;;5.70;99.90;;;;;;5044148;28;20037;-80
2023/01/14 05:03:23;;;;;;;0.40;0.40;;;5.70;99.90;;;;;;5044077;28;20111;-79
2023/01/14 05:05:49;;;;;;;0.80;0.80;;;5.70;99.90;;;;;;5043253;28;20032;-79
2023/01/14 05:08:14;;;;;;;0.10;0.10;;;5.80;99.90;;;;;;5042899;28;20055;-79
2023/01/14 05:10:41;;;;;;;0.28;0.28;;;5.80;99.90;;;;;;5043490;28;20052;-79
2023/01/14 05:13:11;;;;;;;0.20;0.20;;;5.80;99.90;;;;;;5043543;28;20035;-81
2023/01/14 05:15:38;;;;;;;0.10;0.10;;;5.80;99.90;;;;;;5044505;28;20259;-81
2023/01/14 05:18:05;;;;;;;1.38;0.75;;;5.80;99.90;;;;;;5043364;28;20438;-81
2023/01/14 05:20:31;;;;;;;;;;;5.70;99.90;;;;;;5050113;28;20084;-82
2023/01/14 05:23:06;;;;;;;0.10;0.10;;;5.70;99.90;;;;;;5042900;28;19944;-82
2023/01/14 05:25:34;;;;;;;0.30;0.30;;;5.70;99.90;;;;;;5046921;28;20090;-81
2023/01/14 05:28:01;;;;;;;0.43;0.43;;;5.70;99.90;;;;;;5043797;28;20043;-80
2023/01/14 05:30:27;;;;;;;0.30;0.30;;;5.70;99.90;;;;;;5044302;28;20116;-80
2023/01/14 05:32:53;;;;;;;0.53;0.53;;;5.80;99.90;;;;;;5045666;28;20032;-81
2023/01/14 05:35:18;;;;;;;0.13;0.13;;;5.80;99.90;;;;;;5045945;28;20306;-82
2023/01/14 05:37:44;;;;;;;0.10;0.10;;;5.80;99.90;;;;;;5042150;28;20021;-82
2023/01/14 05:40:10;;;;;;;0.10;0.10;;;5.80;99.90;;;;;;5050943;28;20123;-82
2023/01/14 05:45:41;;;;;;;0.10;0.10;;;5.70;99.90;;;;;;5040870;28;20103;-81
2023/01/14 05:48:08;;;;;;;0.10;0.10;;;5.70;99.90;;;;;;5043014;28;20029;-82
2023/01/14 05:50:34;;;;;;;0.88;0.28;;;5.60;99.90;;;;;;5042439;28;20495;-82
2023/01/14 05:53:00;;;;;;;0.55;0.55;;;5.60;99.90;;;;;;5042754;28;20037;-81
2023/01/14 05:55:26;;;;;;;2.97;1.15;;;5.50;99.90;;;;;;5042006;28;20021;-82
2023/01/14 05:57:51;;;;;;;0.10;0.10;;;5.50;99.90;;;;;;5042659;28;20033;-81
2023/01/14 06:08:27;;;;;;;1.88;1.10;;;5.50;99.90;;;;;;5042531;28;21549;-81
2023/01/14 06:10:53;;;;;;;0.10;0.10;;;5.50;99.90;;;;;;5042678;28;20087;-81
2023/01/14 06:13:22;;;;;;;0.30;0.30;;;5.60;99.90;;;;;;5042726;28;20067;-80
2023/01/14 06:15:51;;;;;;;0.20;0.20;;;5.70;99.90;;;;;;5047664;28;20037;-81
2023/01/14 06:18:22;;;;;;;0.30;0.30;;;5.70;99.90;;;;;;5041354;28;20148;-81
2023/01/14 06:20:52;;;;;;;0.45;0.30;;;5.60;99.90;;;;;;5041376;28;20074;-80
2023/01/14 06:23:19;;;;;;;0.20;0.20;;;5.70;99.90;;;;;;5042591;28;20790;-80
2023/01/14 06:25:46;;;;;;;0.43;0.43;;;5.70;99.90;;;;;;5042727;28;20037;-80
2023/01/14 06:28:13;;;;;;;0.20;0.20;;;5.70;99.90;;;;;;5041441;28;20052;-80
2023/01/14 06:30:39;;;;;;;0.30;0.30;;;5.70;99.90;;;;;;5042200;28;20148;-82
2023/01/14 06:33:06;;;;;;;0.10;0.10;;;5.70;99.90;;;;;;5034014;28;20033;-81
2023/01/14 06:35:33;;;;;;;0.15;0.15;;;5.80;99.90;;;;;;5039212;28;20029;-82
2023/01/14 06:37:59;;;;;;;0.73;0.43;;;5.80;99.90;;;;;;5039301;28;20029;-81
2023/01/14 06:40:25;;;;;;;0.20;0.20;;;5.80;99.90;;;;;;5041891;28;20052;-81
2023/01/14 06:42:54;;;;;;;0.10;0.10;;;5.80;99.90;;;;;;5044556;28;20036;-80
2023/01/14 06:45:20;;;;;;;0.20;0.20;;;5.70;99.90;;;;;;5049829;28;20042;-80
2023/01/14 06:47:46;;;;;;;1.77;0.98;;;5.80;99.90;;;;;;5054322;28;20032;-80
2023/01/14 06:50:13;;;;;;;0.15;0.15;;;5.80;99.90;;;;;;5041466;28;20116;-80
2023/01/14 06:52:39;;;;;;;1.52;1.15;;;5.70;99.90;;;;;;5038100;28;20036;-81
2023/01/14 06:55:06;;;;;;;0.30;0.30;;;5.70;99.90;;;;;;5039880;28;20037;-81
2023/01/14 06:57:31;;;;;;;33.50;0.80;;;5.70;99.90;;;;;;5046094;28;20017;-79
2023/01/14 06:59:57;;;;;;;0.40;0.40;;;5.70;99.90;;;;;;5039493;28;20055;-81
2023/01/14 07:02:23;;;;;;;0.63;0.50;;;5.60;99.90;;;;;;5041871;28;20032;-81
2023/01/14 07:04:49;;;;;;;1.55;1.27;;;5.70;99.90;;;;;;5041002;28;20037;-81
2023/01/14 07:07:14;;;;;;;2.83;0.95;;;5.70;99.90;;;;;;5041160;28;20057;-81
2023/01/14 07:09:40;;;;;;;0.10;0.10;;;5.70;99.90;;;;;;5041887;28;20097;-81
2023/01/14 07:12:06;;;;;;;0.63;0.63;;;5.60;99.90;;;;;;5042155;28;20025;-82
2023/01/14 07:14:31;;;;;;;0.13;0.13;;;5.60;99.90;;;;;;5052559;28;20060;-81
2023/01/14 07:16:57;;;;;;;0.10;0.10;;;5.60;99.90;;;;;;5040926;28;20567;-81
2023/01/14 07:19:23;;;;;;;0.20;0.20;;;5.50;99.90;;;;;;5035888;28;20104;-80
2023/01/14 07:21:48;;;;;;;0.20;0.20;;;5.60;99.90;;;;;;5041874;28;20039;-80
2023/01/14 07:24:15;;;;;;;0.20;0.20;;;5.60;99.90;;;;;;5041828;28;20074;-80
2023/01/14 07:26:40;;;;;;;0.10;0.10;;;5.60;99.90;;;;;;5048790;28;20498;-81
2023/01/14 07:29:06;;;;;;;0.10;0.10;;;5.60;99.90;;;;;;5048054;28;20041;-81
2023/01/14 07:31:32;;;;;;;0.88;0.88;;;5.60;99.90;;;;;;5046921;28;20036;-81
2023/01/14 07:33:58;;;;;;;0.35;0.25;;;5.70;99.90;;;;;;5047853;28;20035;-81
2023/01/14 07:36:23;;;;;;;0.40;0.40;;;5.70;99.90;;;;;;5037658;28;20513;-81
2023/01/14 07:38:49;;;;;;;0.20;0.20;;;5.70;99.90;;;;;;5051679;28;20025;-82
2023/01/14 07:41:18;;;;;;;0.25;0.25;;;5.80;99.90;;;;;;5038405;28;20048;-82
2023/01/14 07:43:44;;;;;;;0.68;0.68;;;5.80;99.90;;;;;;5039605;28;20048;-82
2023/01/14 07:46:10;;;;;;;0.10;0.10;;;5.90;99.90;;;;;;5035003;28;20119;-82
2023/01/14 07:48:36;;;;;;;0.13;0.13;;;5.90;99.90;;;;;;5034130;28;20511;-81
2023/01/14 07:51:03;;;;;;;0.20;0.20;;;5.90;99.90;;;;;;5042179;28;20468;-84
2023/01/14 07:53:29;;;;;;;6.22;0.93;;;6.00;99.90;;;;;;5040129;28;20027;-84
2023/01/14 07:55:55;;;;;;;0.10;0.10;;;6.00;99.90;;;;;;5030060;28;20040;-85
2023/01/14 07:58:23;;;;;;;0.10;0.10;;;6.00;99.90;;;;;;5032468;28;20029;-85
2023/01/14 08:00:49;;;;;;;0.10;0.10;;;6.10;99.90;;;;;;5038133;28;20044;-82
2023/01/14 08:03:15;;;;;;;0.10;0.10;;;6.10;99.90;;;;;;5054839;28;20020;-83
2023/01/14 08:05:40;;;;;;;0.10;0.10;;;6.10;99.90;;;;;;5036732;28;20037;-81
2023/01/14 08:08:06;;;;;;;0.30;0.30;;;6.20;99.90;;;;;;5037847;28;20511;-80
2023/01/14 08:10:32;;;;;;;2.90;0.60;;;6.20;99.90;;;;;;5034154;28;20083;-81
2023/01/14 08:12:58;;;;;;;0.10;0.10;;;6.20;99.90;;;;;;5044132;28;20031;-81
2023/01/14 08:15:24;;;;;;;2.25;0.73;;;6.30;99.90;;;;;;5046779;28;20021;-80
2023/01/14 08:17:50;;;;;;;0.10;0.10;;;6.30;99.90;;;;;;5047626;28;20036;-81
2023/01/14 08:20:22;;;;;;;0.50;0.50;;;6.40;99.90;;;;;;5047759;28;20564;-81
2023/01/14 08:22:47;;;;;;;0.40;0.40;;;6.30;99.90;;;;;;5049335;28;20013;-81
2023/01/14 08:25:13;;;;;;;0.10;0.10;;;6.40;99.90;;;;;;5046896;28;20029;-83
2023/01/14 08:27:39;;;;;;;0.20;0.20;;;6.40;99.90;;;;;;5051442;28;20024;-80
2023/01/14 08:30:05;;;;;;;1.15;0.40;;;6.40;99.90;;;;;;5043693;28;20033;-80
2023/01/14 08:32:31;;;;;;;0.30;0.30;;;6.40;99.90;;;;;;5041344;28;20065;-81
2023/01/14 08:34:57;;;;;;;1.75;1.38;;;6.40;99.90;;;;;;5043852;28;21416;-82
2023/01/14 08:37:23;;;;;;;0.50;0.50;;;6.40;99.90;;;;;;5045273;28;20791;-80
2023/01/14 08:39:48;;;;;;;0.77;0.77;;;6.50;99.90;;;;;;5044756;28;20454;-83
2023/01/14 08:42:14;;;;;;;0.20;0.20;;;6.50;99.90;;;;;;5032901;28;20652;-81
2023/01/14 08:44:40;;;;;;;0.20;0.20;;;6.50;99.90;;;;;;5044777;28;20167;-82
2023/01/14 08:47:05;;;;;;;0.10;0.10;;;6.60;99.90;;;;;;5034603;28;20493;-83
2023/01/14 08:49:31;;;;;;;0.10;0.10;;;6.60;99.90;;;;;;5038163;28;20040;-83
2023/01/14 08:51:58;;;;;;;0.17;0.17;;;6.70;99.90;;;;;;5033183;28;20058;-82
2023/01/14 08:54:24;;;;;;;0.65;0.40;;;6.70;99.90;;;;;;5030889;28;20504;-80
2023/01/14 08:56:50;;;;;;;0.20;0.20;;;6.80;99.90;;;;;;5033998;28;20034;-84
2023/01/14 08:59:15;;;;;;;0.10;0.10;;;6.90;99.90;;;;;;5042121;28;20127;-83
2023/01/14 09:01:41;;;;;;;0.10;0.10;;;6.80;99.90;;;;;;5042807;28;20021;-84
2023/01/14 09:04:08;;;;;;;0.60;0.60;;;7.00;99.90;;;;;;5043866;28;20056;-85
2023/01/14 09:17:04;;;;;;;0.20;0.20;;;7.10;99.90;;;;;;5040921;28;20539;-84
2023/01/14 09:17:36;;;;;;;0.30;0.30;;;7.20;99.90;;;;;;5044368;28;20117;-86
2023/01/14 09:20:03;;;;;;;0.20;0.20;;;7.20;99.90;;;;;;5043290;28;20496;-84
2023/01/14 09:22:30;;;;;;;0.10;0.10;;;7.30;99.90;;;;;;5043740;28;20035;-82
2023/01/14 09:24:56;;;;;;;0.80;0.80;;;7.40;99.90;;;;;;5043510;28;20021;-82
2023/01/14 09:27:22;;;;;;;0.10;0.10;;;7.60;99.90;;;;;;5043180;28;20162;-82
2023/01/14 09:29:49;;;;;;;0.27;0.27;;;7.60;99.90;;;;;;5043945;28;20036;-83
2023/01/14 09:32:16;;;;;;;0.60;0.40;;;7.70;99.90;;;;;;5044220;28;20029;-83
2023/01/14 09:34:49;;;;;;;0.10;0.10;;;7.70;99.90;;;;;;5034488;28;20025;-80
2023/01/14 09:37:16;;;;;;;0.10;0.10;;;7.70;99.90;;;;;;5034576;28;20026;-83
2023/01/14 09:39:42;;;;;;;0.10;0.10;;;7.70;99.90;;;;;;5044102;28;20029;-82
2023/01/14 09:42:14;;;;;;;1.00;0.80;;;7.70;99.90;;;;;;5044058;28;20090;-82
2023/01/14 09:44:42;;;;;;;0.50;0.50;;;7.80;99.90;;;;;;5042645;28;20117;-83
2023/01/14 09:47:12;;;;;;;0.20;0.20;;;8.00;99.90;;;;;;5044025;28;20043;-81
2023/01/14 09:49:40;;;;;;;4.47;1.25;;;8.10;99.90;;;;;;5046249;28;20551;-83
2023/01/14 09:52:45;;;;;;;0.45;0.45;;;8.20;99.90;;;;;;5042009;28;20021;-84
2023/01/14 09:55:30;;;;;;;1.25;0.77;;;8.50;99.90;;;;;;5040294;28;20032;-84
2023/01/14 09:58:04;;;;;;;0.65;0.60;;;8.60;99.90;;;;;;5043539;28;20021;-84
2023/01/14 10:00:46;;;;;;;2.33;0.85;;;8.50;99.90;;;;;;5047075;28;20032;-82
2023/01/14 10:03:34;;;;;;;3.65;3.08;;;8.40;99.90;;;;;;5043659;28;20492;-83
2023/01/14 10:06:05;;;;;;;0.55;0.55;;;8.30;99.90;;;;;;5044564;28;20025;-84
2023/01/14 10:08:38;;;;;;;1.20;1.08;;;8.20;99.90;;;;;;5044286;28;20088;-84
2023/01/14 10:11:06;;;;;;;3.40;1.60;;;8.10;99.90;;;;;;5044596;28;20534;-83
2023/01/14 10:13:48;;;;;;;0.47;0.47;;;8.20;99.90;;;;;;5043992;28;20111;-81
2023/01/14 10:16:19;;;;;;;0.63;0.45;;;8.20;99.90;;;;;;5041702;28;20036;-78
2023/01/14 10:19:03;;;;;;;0.47;0.47;;;8.30;99.90;;;;;;5051752;28;20404;-81
2023/01/14 10:21:49;;;;;;;0.10;0.10;;;8.40;99.90;;;;;;5043427;28;20044;-80
2023/01/14 10:24:17;;;;;;;0.10;0.10;;;8.50;99.90;;;;;;5054477;28;20020;-80
2023/01/14 10:26:45;;;;;;;0.10;0.10;;;8.60;99.90;;;;;;5042860;28;20029;-79
2023/01/14 10:29:16;;;;;;;0.10;0.10;;;8.50;99.90;;;;;;5045710;28;20082;-79
2023/01/14 10:31:48;;;;;;;0.25;0.25;;;8.50;99.90;;;;;;5042918;28;20086;-79
2023/01/14 10:34:22;;;;;;;0.30;0.30;;;8.60;99.90;;;;;;5051745;28;20052;-81
2023/01/14 10:36:48;;;;;;;0.13;0.13;;;8.70;99.90;;;;;;5043572;28;20487;-79
2023/01/14 10:39:13;;;;;;;0.77;0.77;;;8.70;99.90;;;;;;5041293;28;20024;-80
2023/01/14 10:41:48;;;;;;;0.17;0.17;;;8.80;99.90;;;;;;5042502;28;20036;-81
2023/01/14 10:44:37;;;;;;;1.35;0.55;;;9.00;99.90;;;;;;5038647;28;20025;-82
2023/01/14 10:47:15;;;;;;;0.22;0.22;;;9.00;99.90;;;;;;5033937;28;20029;-80
2023/01/14 10:50:01;;;;;;;0.60;0.60;;;9.10;99.90;;;;;;5043150;28;20029;-80
2023/01/14 10:52:29;;;;;;;11.65;1.27;;;9.10;99.90;;;;;;5037458;28;20078;-79
2023/01/14 10:55:00;;;;;;;0.20;0.20;;;9.20;99.90;;;;;;5034503;28;20028;-79
2023/01/14 10:57:39;;;;;;;0.80;0.80;;;9.10;99.90;;;;;;5034465;28;20121;-80
2023/01/14 11:00:08;;;;;;;1.27;1.20;;;9.00;99.90;;;;;;5039776;28;20629;-78
2023/01/14 11:02:38;;;;;;;0.20;0.20;;;9.00;99.90;;;;;;5038791;28;20024;-79
2023/01/14 11:05:21;;;;;;;1.30;0.90;;;9.00;99.90;;;;;;5039579;28;20132;-81
2023/01/14 11:07:50;;;;;;;0.10;0.10;;;9.00;99.90;;;;;;5040823;28;20072;-75
2023/01/14 11:10:21;;;;;;;0.15;0.15;;;9.00;99.90;;;;;;5043548;28;20052;-77
2023/01/14 11:12:47;;;;;;;0.10;0.10;;;9.10;99.90;;;;;;5039854;28;20132;-76
2023/01/14 11:15:33;;;;;;;0.08;0.08;;;9.20;99.90;;;;;;5042902;28;20535;-84
2023/01/14 11:18:17;;;;;;;16.02;0.82;;;9.10;99.90;;;;;;5043020;28;20048;-84
2023/01/14 11:20:51;;;;;;;0.63;0.63;;;9.20;99.90;;;;;;5038574;28;20037;-79
2023/01/14 11:23:40;;;;;;;0.10;0.10;;;9.00;99.90;;;;;;5038863;28;20108;-76
2023/01/14 11:26:08;;;;;;;0.20;0.20;;;9.10;99.90;;;;;;5033124;28;20021;-77
2023/01/14 11:28:42;;;;;;;1.02;0.73;;;9.10;99.90;;;;;;5042337;28;20563;-79
2023/01/14 11:31:08;;;;;;;0.32;0.22;;;9.20;99.90;;;;;;5041527;28;20029;-78
2023/01/14 11:33:34;;;;;;;0.13;0.13;;;9.40;99.90;;;;;;5041914;28;20138;-79
2023/01/14 11:36:02;;;;;;;2.30;1.13;;;9.50;99.90;;;;;;5041754;28;20644;-81
2023/01/14 11:38:28;;;;;;;0.40;0.40;;;9.60;99.90;;;;;;5024654;28;20025;-78
2023/01/14 11:44:17;;;;;;;0.00;0.00;;;9.40;99.90;;;;;;5041735;28;20056;-79
2023/01/14 11:46:45;;;;;;;0.20;0.20;;;9.50;99.90;;;;;;5034831;28;20041;-76
2023/01/14 11:49:21;;;;;;;6.85;1.85;;;9.70;99.90;;;;;;5039057;28;20106;-77
2023/01/14 11:52:05;;;;;;;9.73;0.75;;;9.90;99.90;;;;;;5040684;28;20994;-81
2023/01/14 11:54:33;;;;;;;0.85;0.85;;;10.30;99.90;;;;;;5028105;28;20143;-80
2023/01/14 11:56:59;;;;;;;0.20;0.20;;;10.50;99.90;;;;;;5039716;28;20132;-80
2023/01/14 11:59:45;;;;;;;0.10;0.10;;;10.60;99.90;;;;;;5044011;28;20048;-80
2023/01/14 12:02:30;;;;;;;0.65;0.65;;;10.50;99.90;;;;;;5053409;28;20074;-80
2023/01/14 12:05:01;;;;;;;0.20;0.20;;;10.70;99.90;;;;;;5046669;28;20057;-80
2023/01/14 12:07:35;;;;;;;0.25;0.25;;;10.60;99.90;;;;;;5048252;28;20029;-80
2023/01/14 12:10:03;;;;;;;0.10;0.10;;;10.70;99.90;;;;;;5052471;28;20483;-80
2023/01/14 12:16:48;;;;;;;0.93;0.85;;;10.80;99.90;;;;;;5050493;28;20794;-80
2023/01/14 12:18:34;;;;;;;0.15;0.15;;;11.00;99.90;;;;;;5037846;28;20032;-80
2023/01/14 12:21:02;;;;;;;0.20;0.20;;;10.80;99.90;;;;;;5043952;28;20041;-80
2023/01/14 12:23:33;;;;;;;0.32;0.32;;;10.80;99.90;;;;;;5046354;28;20055;-80
2023/01/14 12:26:03;;;;;;;1.85;0.63;;;10.70;99.90;;;;;;5050459;28;20024;-80
2023/01/14 12:28:33;;;;;;;0.13;0.13;;;10.80;99.90;;;;;;5045121;28;20871;-80
2023/01/14 12:31:04;;;;;;;0.10;0.10;;;10.80;99.90;;;;;;5042254;28;20028;-80
2023/01/14 12:33:33;;;;;;;0.85;0.38;;;10.90;99.90;;;;;;5052893;28;20136;-80
2023/01/14 12:36:17;;;;;;;0.35;0.35;;;10.80;99.90;;;;;;5047574;28;20112;-80
2023/01/14 12:47:34;;;;;;;0.47;0.47;;;10.80;99.90;;;;;;5042613;28;20544;-81
2023/01/14 12:50:03;;;;;;;0.00;0.00;;;10.80;99.90;;;;;;5048400;28;20063;-80
2023/01/14 12:52:32;;;;;;;0.10;0.10;;;10.90;99.90;;;;;;5040891;28;20029;-81
2023/01/14 12:55:00;;;;;;;0.00;0.00;;;10.80;99.90;;;;;;5042045;28;20035;-81
2023/01/14 12:57:27;;;;;;;0.10;0.10;;;10.60;99.90;;;;;;5043947;28;20189;-80
2023/01/14 13:00:07;;;;;;;0.40;0.40;;;10.80;99.90;;;;;;5048506;28;20618;-81
2023/01/14 13:02:53;;;;;;;0.10;0.10;;;11.10;99.90;;;;;;5039914;28;20048;-81
2023/01/14 13:05:29;;;;;;;0.10;0.10;;;10.90;99.90;;;;;;5041266;28;20914;-80
2023/01/14 13:08:00;;;;;;;0.30;0.20;;;10.90;99.90;;;;;;5049033;28;20104;-81
2023/01/14 13:10:38;;;;;;;0.20;0.20;;;10.50;99.90;;;;;;5053038;28;20298;-80
2023/01/14 13:13:17;;;;;;;0.50;0.50;;;10.50;99.90;;;;;;5051702;28;20140;-80
2023/01/14 13:15:43;;;;;;;0.10;0.10;;;10.50;99.90;;;;;;5040020;28;20025;-80
2023/01/14 13:18:33;;;;;;;0.08;0.08;;;10.60;99.90;;;;;;5034903;28;20018;-81
2023/01/14 13:20:59;;;;;;;0.10;0.10;;;10.80;99.90;;;;;;5042729;28;20471;-77
2023/01/14 13:23:43;;;;;;;0.20;0.20;;;10.90;99.90;;;;;;5045398;28;20124;-79
2023/01/14 13:26:41;;;;;;;0.25;0.25;;;10.50;99.90;;;;;;5041262;28;20975;-78
2023/01/14 13:29:20;;;;;;;1.92;0.40;;;10.60;99.90;;;;;;5034049;28;20017;-79
2023/01/14 13:31:46;;;;;;;0.40;0.40;;;10.90;99.90;;;;;;5042786;28;20116;-79
2023/01/14 13:34:33;;;;;;;0.10;0.10;;;10.90;99.90;;;;;;5039263;28;20055;-78
2023/01/14 13:37:04;;;;;;;1.90;0.68;;;10.90;99.90;;;;;;5041594;28;20140;-79
2023/01/14 13:39:32;;;;;;;0.20;0.20;;;11.10;99.90;;;;;;5044452;28;20295;-79
2023/01/14 13:42:00;;;;;;;0.30;0.30;;;11.20;99.90;;;;;;5051597;28;20025;-79
2023/01/14 13:44:32;;;;;;;0.10;0.10;;;11.30;99.90;;;;;;5045974;28;20025;-79
2023/01/14 13:47:04;;;;;;;0.35;0.35;;;11.20;99.90;;;;;;5047942;28;20476;-78
2023/01/14 13:49:42;;;;;;;0.10;0.10;;;11.30;99.90;;;;;;5046076;28;20036;-80
2023/01/14 13:52:21;;;;;;;0.10;0.10;;;11.30;99.90;;;;;;5046181;28;20032;-79
2023/01/14 13:55:24;;;;;;;0.30;0.30;;;11.30;99.90;;;;;;5034108;28;20412;-78